Kezdőlap
METAR-TAF:

METAR-TAF

Repülőterek :

Taylorville Municipal Airport

Taylorville, Illinois, Amerikai Egyesült Államok

földrajzi szélesség: 39-32-03N, földrajzi hosszúság: 089-19-40W, magasság: 190 m

Jelenlegi meteorológiai megfigyelések

A jelentés 21 perccel ezelõtt készült, 17:35 UTC
Keleti szél 13 kt
Hőmérséklet 12°C
Páratartalom 47%
Légköri nyomás 1027 hPa
Látótávolság: 16.1 km
Derült ég

METAR: KTAZ 111735Z AUTO 09013KT 10SM CLR 12/01 A3032 RMK AO2

Idő: 12:56 (17:56 UTC)


TAF: hiányzik

Meteorológiai megfigyelések és előrejelzések több, mint 4000 repülőtéren (METAR és TAF jelentéseket).

A térképen piros és sárga pontok jelzik az elérhető meteorológiai állomásokat.

Mozgassa az egeret a pont fölött, hogy megjelenjen az állomás neve.

Azután kattintson az időjárási megfigyelések és előrejelzések megtekintéséhez.

A térkép megváltoztatása: kattintson a fekete keresztel jelölt zöld gombra ráközelítéshez, a vonallal jelölt zöld gombra távolításhoz, vagy a zöld nyilakra a szomszédos térképek eléréséhez.


METAR-TAF: